Time;durP1;ratioP1;P1;durP2;ratioP2;P2;SDS_P1;SDS_P2;PMS_P1;PMS_P2;Temp;Humidity;BMP_temperature;BMP_pressure;BME280_temperature;BME280_humidity;BME280_pressure;Samples;Min_cycle;Max_cycle;Signal;HPM_P1;HPM_P2
2021/09/23 00:01:45;;;;;;;14.57;9.30;;;;;;;16.66;65.33;101870.09;5055457;28;20064;-66
2021/09/23 00:04:21;;;;;;;14.18;9.73;;;;;;;16.45;65.65;101869.06;5054515;28;20056;-65
2021/09/23 00:06:53;;;;;;;12.60;9.27;;;;;;;16.67;64.96;101857.81;5054901;28;20053;-60
2021/09/23 00:09:21;;;;;;;15.80;9.50;;;;;;;16.75;65.07;101851.41;5020508;28;20065;-58
2021/09/23 00:11:48;;;;;;;20.30;9.40;;;;;;;16.70;64.85;101842.44;5053534;28;20116;-59
2021/09/23 00:14:16;;;;;;;13.68;9.80;;;;;;;16.69;65.11;101841.59;5053233;28;20076;-59
2021/09/23 00:16:43;;;;;;;15.15;9.73;;;;;;;16.45;65.28;101840.41;5054661;28;20048;-58
2021/09/23 00:19:11;;;;;;;15.20;9.25;;;;;;;16.36;65.68;101834.00;5054735;28;20053;-57
2021/09/23 00:21:38;;;;;;;14.68;9.52;;;;;;;16.45;65.54;101840.41;5028055;28;20050;-65
2021/09/23 00:24:05;;;;;;;13.77;9.13;;;;;;;16.59;65.39;101841.13;5013856;28;20069;-64
2021/09/23 00:26:33;;;;;;;14.85;9.70;;;;;;;16.46;65.22;101837.34;5029956;28;20058;-58
2021/09/23 00:29:03;;;;;;;14.15;9.50;;;;;;;16.24;65.81;101845.78;5014874;28;20098;-66
2021/09/23 00:31:31;;;;;;;15.32;10.02;;;;;;;16.32;65.81;101844.16;5013983;28;20486;-58
2021/09/23 00:33:59;;;;;;;15.57;9.43;;;;;;;16.32;65.39;101838.59;5015276;28;20054;-56
2021/09/23 00:36:31;;;;;;;13.63;9.82;;;;;;;16.01;66.04;101833.13;5013330;28;20409;-67
2021/09/23 00:38:58;;;;;;;15.32;10.13;;;;;;;15.88;66.98;101847.97;5024836;28;20075;-66
2021/09/23 00:41:26;;;;;;;17.40;9.38;;;;;;;15.81;67.04;101844.84;5053413;28;20045;-67
2021/09/23 00:43:53;;;;;;;14.80;9.80;;;;;;;15.42;69.11;101837.31;5053482;28;20079;-67
2021/09/23 00:46:21;;;;;;;17.80;10.57;;;;;;;15.37;69.40;101833.81;5054638;28;20056;-59
2021/09/23 00:48:51;;;;;;;17.02;9.57;;;;;;;15.60;69.00;101839.00;5053131;28;20059;-57
2021/09/23 00:51:19;;;;;;;19.50;10.27;;;;;;;15.70;68.75;101835.16;5054919;28;20067;-58
2021/09/23 00:53:48;;;;;;;15.55;10.48;;;;;;;15.77;68.75;101841.06;5056738;28;20052;-65
2021/09/23 00:56:15;;;;;;;15.02;10.25;;;;;;;15.91;68.01;101833.44;5056474;28;20135;-59
2021/09/23 00:58:43;;;;;;;15.25;10.57;;;;;;;16.01;68.91;101823.97;5057759;28;20046;-60
2021/09/23 01:01:10;;;;;;;19.60;13.65;;;;;;;16.19;68.14;101822.88;5057619;28;20054;-64
2021/09/23 01:03:38;;;;;;;19.30;11.05;;;;;;;16.29;67.63;101814.22;5040286;28;20529;-59
2021/09/23 01:06:06;;;;;;;16.65;9.65;;;;;;;16.28;66.91;101815.38;5058646;28;20060;-58
2021/09/23 01:08:38;;;;;;;16.70;10.05;;;;;;;16.42;66.53;101804.91;5056550;28;20060;-59
2021/09/23 01:11:06;;;;;;;15.02;10.05;;;;;;;16.16;66.48;101798.50;5056298;28;20053;-60
2021/09/23 01:13:33;;;;;;;13.80;10.13;;;;;;;16.24;66.56;101789.34;5056415;28;20524;-66
2021/09/23 01:16:12;;;;;;;18.83;9.93;;;;;;;16.31;67.07;101789.69;5056626;28;20127;-65
2021/09/23 01:19:00;;;;;;;17.35;10.57;;;;;;;16.33;66.55;101784.63;5056123;28;20063;-59
2021/09/23 01:21:31;;;;;;;18.75;9.73;;;;;;;16.27;66.91;101780.34;5047418;28;20065;-59
2021/09/23 01:23:59;;;;;;;19.27;10.73;;;;;;;16.09;66.56;101781.50;5036723;28;20045;-58
2021/09/23 01:26:29;;;;;;;14.20;9.98;;;;;;;16.08;67.20;101769.53;5036831;28;20389;-65
2021/09/23 01:29:03;;;;;;;15.52;10.15;;;;;;;15.91;67.39;101771.47;5021746;28;20053;-59
2021/09/23 01:31:36;;;;;;;15.85;10.52;;;;;;;15.86;67.80;101764.13;5036211;28;20618;-64
2021/09/23 01:34:04;;;;;;;16.65;9.98;;;;;;;15.99;67.90;101760.38;5036346;28;20060;-59
2021/09/23 01:36:31;;;;;;;17.60;10.52;;;;;;;15.94;68.50;101760.53;5020393;28;20045;-66
2021/09/23 01:38:59;;;;;;;20.42;10.43;;;;;;;15.80;68.22;101759.84;5024705;28;20056;-66
2021/09/23 01:41:26;;;;;;;14.43;10.18;;;;;;;15.90;67.86;101751.19;5055916;28;20052;-66
2021/09/23 01:43:55;;;;;;;19.35;11.32;;;;;;;16.01;67.67;101755.31;5056874;28;20053;-59
2021/09/23 01:46:22;;;;;;;15.90;10.48;;;;;;;15.64;68.54;101748.34;5055911;28;20064;-65
2021/09/23 01:49:06;;;;;;;16.85;10.60;;;;;;;15.78;68.75;101746.28;5056277;28;20063;-65
2021/09/23 01:51:34;;;;;;;14.73;9.13;;;;;;;15.69;68.67;101741.84;5055554;28;20052;-65
2021/09/23 01:54:02;;;;;;;14.80;10.00;;;;;;;15.74;68.48;101748.06;5055437;28;20071;-58
2021/09/23 01:56:30;;;;;;;18.02;10.68;;;;;;;15.66;68.49;101743.31;5055786;28;20067;-65
2021/09/23 01:58:57;;;;;;;15.70;10.40;;;;;;;15.71;68.33;101740.38;5039170;28;20049;-66
2021/09/23 02:01:25;;;;;;;14.02;9.95;;;;;;;15.34;70.19;101731.75;5055404;28;20053;-65
2021/09/23 02:03:53;;;;;;;14.63;10.55;;;;;;;15.52;68.98;101731.50;5054648;28;20072;-61
2021/09/23 02:06:44;;;;;;;16.67;10.80;;;;;;;15.55;68.93;101739.19;5056025;28;20487;-58
2021/09/23 02:09:12;;;;;;;12.25;9.35;;;;;;;15.62;68.25;101736.75;5055162;28;20496;-65
2021/09/23 02:11:40;;;;;;;16.45;10.32;;;;;;;15.51;68.27;101740.97;5056886;28;20113;-57
2021/09/23 02:14:08;;;;;;;14.90;9.32;;;;;;;15.09;69.84;101740.75;5055072;28;20049;-58
2021/09/23 02:16:35;;;;;;;15.05;10.77;;;;;;;14.93;71.68;101731.19;5055372;28;20053;-66
2021/09/23 02:19:22;;;;;;;12.68;9.90;;;;;;;15.00;71.30;101726.00;5056155;28;20234;-64
2021/09/23 02:21:50;;;;;;;14.95;9.80;;;;;;;15.26;69.88;101719.44;5049247;28;20041;-67
2021/09/23 02:24:19;;;;;;;15.35;10.60;;;;;;;15.12;70.05;101727.06;5015501;28;20065;-65
2021/09/23 02:26:46;;;;;;;13.25;9.55;;;;;;;15.22;69.96;101726.78;5016015;28;20053;-65
2021/09/23 02:29:14;;;;;;;18.40;10.48;;;;;;;15.21;69.73;101725.16;5014900;28;20064;-65
2021/09/23 02:31:41;;;;;;;18.20;10.50;;;;;;;14.91;71.34;101730.69;5014720;28;20050;-58
2021/09/23 02:34:09;;;;;;;18.92;10.18;;;;;;;15.14;71.08;101715.63;5016617;28;20057;-59
2021/09/23 02:36:36;;;;;;;19.38;11.00;;;;;;;15.37;70.57;101717.22;4999249;28;20050;-65
2021/09/23 02:39:04;;;;;;;14.85;9.98;;;;;;;15.49;69.54;101711.88;5026074;28;20067;-65
2021/09/23 02:41:32;;;;;;;16.67;9.70;;;;;;;15.48;70.09;101705.50;5056434;28;20060;-64
2021/09/23 02:44:00;;;;;;;16.98;10.02;;;;;;;15.47;69.02;101708.59;5054906;28;20052;-59
2021/09/23 02:46:27;;;;;;;16.35;10.13;;;;;;;15.45;69.91;101719.22;5021480;28;20068;-59
2021/09/23 02:48:55;;;;;;;15.30;10.27;;;;;;;15.60;70.12;101713.25;5054705;28;20068;-57
2021/09/23 02:51:23;;;;;;;13.50;9.95;;;;;;;15.27;69.77;101712.75;5054192;28;20045;-58
2021/09/23 02:53:50;;;;;;;15.38;9.93;;;;;;;15.16;70.25;101722.50;5055035;28;20480;-58
2021/09/23 02:56:17;;;;;;;12.52;8.90;;;;;;;15.14;71.88;101718.41;5054303;28;20048;-58
2021/09/23 02:58:47;;;;;;;13.95;9.23;;;;;;;15.40;71.40;101719.38;5054966;28;20064;-57
2021/09/23 03:01:14;;;;;;;14.97;9.47;;;;;;;15.32;70.74;101711.81;5037007;28;20055;-58
2021/09/23 03:03:42;;;;;;;11.90;8.95;;;;;;;15.35;69.87;101714.75;5054745;28;20049;-59
2021/09/23 03:06:14;;;;;;;14.98;10.20;;;;;;;14.93;71.37;101714.53;5037521;28;20503;-60
2021/09/23 03:08:42;;;;;;;13.68;9.90;;;;;;;15.32;71.85;101704.31;5054410;28;20487;-59
2021/09/23 03:11:09;;;;;;;11.85;8.93;;;;;;;15.15;71.18;101695.88;5054226;28;20163;-58
2021/09/23 03:13:37;;;;;;;12.35;9.75;;;;;;;15.33;71.08;101699.53;5053772;28;20067;-58
2021/09/23 03:16:06;;;;;;;18.00;9.43;;;;;;;15.07;71.15;101699.44;5054355;28;20044;-56
2021/09/23 03:18:34;;;;;;;15.63;10.23;;;;;;;15.01;71.82;101705.47;5054262;28;20049;-58
2021/09/23 03:21:03;;;;;;;16.25;9.75;;;;;;;15.00;71.82;101701.88;5054108;28;20053;-56
2021/09/23 03:23:30;;;;;;;14.82;9.57;;;;;;;15.30;72.81;101692.69;5036581;28;20045;-58
2021/09/23 03:25:58;;;;;;;14.95;9.32;;;;;;;15.43;71.72;101699.31;5018345;28;20049;-60
2021/09/23 03:28:25;;;;;;;16.67;9.48;;;;;;;15.06;72.32;101695.06;5033889;28;20060;-65
2021/09/23 03:30:53;;;;;;;12.48;9.07;;;;;;;15.15;72.83;101695.09;5035169;28;20049;-65
2021/09/23 03:33:20;;;;;;;17.25;10.27;;;;;;;14.81;72.37;101686.59;5033830;28;20408;-65
2021/09/23 03:35:47;;;;;;;14.20;9.55;;;;;;;14.88;72.35;101687.78;5035336;28;20050;-65
2021/09/23 03:38:15;;;;;;;15.52;9.07;;;;;;;15.14;71.55;101683.16;5034160;28;20061;-65
2021/09/23 03:40:47;;;;;;;14.75;9.32;;;;;;;15.01;71.16;101686.84;5053247;28;20053;-64
2021/09/23 03:43:15;;;;;;;18.80;9.52;;;;;;;15.37;71.49;101665.28;5053604;28;20045;-65
2021/09/23 03:45:44;;;;;;;13.93;9.10;;;;;;;15.38;70.73;101678.00;5037152;28;20056;-65
2021/09/23 03:48:11;;;;;;;16.77;9.45;;;;;;;15.29;70.28;101671.63;5054151;28;20045;-65
2021/09/23 03:50:38;;;;;;;13.63;9.77;;;;;;;14.96;70.93;101683.41;5053601;28;20064;-65
2021/09/23 03:53:06;;;;;;;16.05;9.43;;;;;;;15.08;72.17;101678.09;5053781;28;20053;-66
2021/09/23 03:55:33;;;;;;;14.70;9.32;;;;;;;15.15;71.34;101672.88;5053060;28;20061;-59
2021/09/23 03:58:01;;;;;;;16.23;9.55;;;;;;;14.76;71.66;101676.44;5037327;28;20048;-57
2021/09/23 04:00:28;;;;;;;14.32;9.75;;;;;;;14.53;72.88;101672.06;5052882;28;20064;-59
2021/09/23 04:02:56;;;;;;;16.23;9.98;;;;;;;14.66;72.72;101671.19;5053656;28;20048;-56
2021/09/23 04:05:24;;;;;;;14.15;9.90;;;;;;;14.59;73.42;101668.84;5053426;28;20067;-64
2021/09/23 04:07:51;;;;;;;13.52;10.07;;;;;;;14.35;73.65;101676.69;5053732;28;20049;-59
2021/09/23 04:10:19;;;;;;;17.02;10.65;;;;;;;14.05;74.44;101671.84;5053175;28;20467;-59
2021/09/23 04:12:46;;;;;;;15.30;10.35;;;;;;;14.23;74.46;101684.72;5037290;28;20048;-58
2021/09/23 04:15:13;;;;;;;17.77;10.55;;;;;;;14.25;74.00;101688.00;5053265;28;20064;-64
2021/09/23 04:17:41;;;;;;;15.02;10.20;;;;;;;13.93;75.99;101685.41;5054382;28;20044;-66
2021/09/23 04:20:08;;;;;;;15.07;10.75;;;;;;;13.70;76.40;101682.94;5053387;28;20064;-66
2021/09/23 04:22:37;;;;;;;13.80;10.35;;;;;;;14.04;76.23;101684.06;5052572;28;20049;-65
2021/09/23 04:25:04;;;;;;;18.23;10.80;;;;;;;14.14;76.22;101680.25;5011716;28;20473;-66
2021/09/23 04:27:32;;;;;;;15.15;10.57;;;;;;;14.08;76.86;101675.94;5013258;28;20488;-66
2021/09/23 04:29:59;;;;;;;19.30;11.23;;;;;;;14.36;74.89;101692.19;5014764;28;20508;-65
2021/09/23 04:32:27;;;;;;;18.10;10.98;;;;;;;14.18;74.97;101693.16;5012582;28;20054;-65
2021/09/23 04:34:54;;;;;;;16.70;10.48;;;;;;;13.91;76.42;101686.88;5013466;28;20046;-61
2021/09/23 04:37:22;;;;;;;19.50;11.65;;;;;;;13.71;77.65;101693.69;5013532;28;20421;-56
2021/09/23 04:39:51;;;;;;;16.90;12.20;;;;;;;13.40;78.72;101690.78;5036913;28;20060;-58
2021/09/23 04:42:18;;;;;;;18.02;12.15;;;;;;;13.56;79.09;101697.59;5053092;28;20398;-61
2021/09/23 04:44:49;;;;;;;22.90;12.85;;;;;;;13.62;79.80;101700.25;5052718;28;20053;-61
2021/09/23 04:47:17;;;;;;;21.20;12.00;;;;;;;13.74;77.57;101698.59;5052931;28;20064;-57
2021/09/23 04:49:44;;;;;;;23.08;13.30;;;;;;;13.38;79.02;101700.50;5052506;28;20372;-59
2021/09/23 04:52:13;;;;;;;19.85;12.73;;;;;;;13.21;80.26;101700.31;5053189;28;20060;-59
2021/09/23 04:54:40;;;;;;;16.70;12.50;;;;;;;13.36;80.98;101698.03;5053756;28;19921;-62
2021/09/23 04:57:08;;;;;;;17.88;12.07;;;;;;;13.64;81.02;101696.06;5036873;28;20057;-59
2021/09/23 04:59:40;;;;;;;16.33;11.30;;;;;;;14.45;78.38;101692.25;5052211;28;20053;-57
2021/09/23 05:02:07;;;;;;;17.85;12.20;;;;;;;14.25;76.87;101701.00;5052502;28;20049;-60
2021/09/23 05:04:35;;;;;;;19.88;11.45;;;;;;;14.38;76.51;101700.19;5052833;28;20060;-58
2021/09/23 05:07:03;;;;;;;16.67;12.02;;;;;;;14.32;76.42;101699.47;5054227;28;20045;-58
2021/09/23 05:09:33;;;;;;;18.50;12.18;;;;;;;14.18;75.44;101706.16;5052874;28;20052;-60
2021/09/23 05:12:03;;;;;;;20.60;13.40;;;;;;;13.73;77.40;101708.03;5036540;28;20052;-60
2021/09/23 05:14:31;;;;;;;20.05;12.30;;;;;;;13.77;78.21;101709.06;5053880;28;20049;-59
2021/09/23 05:17:00;;;;;;;18.45;12.20;;;;;;;13.54;77.99;101722.03;5053835;28;20053;-54
2021/09/23 05:19:30;;;;;;;22.15;13.60;;;;;;;12.91;80.75;101734.84;5054809;28;20057;-58
2021/09/23 05:21:57;;;;;;;23.42;13.55;;;;;;;12.66;82.48;101734.50;5052806;28;20071;-57
2021/09/23 05:24:25;;;;;;;19.10;12.07;;;;;;;12.56;83.74;101737.41;5026314;28;20050;-58
2021/09/23 05:26:59;;;;;;;18.35;12.48;;;;;;;12.70;83.55;101733.56;5017204;28;20046;-59
2021/09/23 05:29:29;;;;;;;19.90;12.00;;;;;;;13.15;81.60;101727.25;5034506;28;20049;-62
2021/09/23 05:31:57;;;;;;;20.63;12.50;;;;;;;13.34;81.89;101725.19;5033679;28;20052;-59
2021/09/23 05:34:25;;;;;;;19.42;12.15;;;;;;;13.55;79.49;101737.50;5033402;28;20042;-60
2021/09/23 05:36:52;;;;;;;18.65;11.95;;;;;;;13.48;79.57;101731.56;5034097;28;20049;-58
2021/09/23 05:39:22;;;;;;;22.50;13.27;;;;;;;13.56;78.76;101730.03;5027915;28;20479;-57
2021/09/23 05:41:49;;;;;;;20.38;12.57;;;;;;;13.41;78.90;101731.13;5056130;28;20049;-59
2021/09/23 05:44:23;;;;;;;23.67;12.75;;;;;;;13.27;79.93;101735.03;5056148;28;20045;-57
2021/09/23 05:46:52;;;;;;;19.55;13.20;;;;;;;13.52;79.32;101746.44;5056179;28;20246;-58
2021/09/23 05:49:21;;;;;;;18.77;12.73;;;;;;;13.22;80.36;101751.72;5055189;28;20579;-57
2021/09/23 05:51:49;;;;;;;23.95;13.40;;;;;;;12.97;82.27;101743.88;5056371;28;20045;-59
2021/09/23 05:54:18;;;;;;;22.60;11.98;;;;;;;13.50;80.49;101743.13;5056163;28;20041;-59
2021/09/23 05:56:46;;;;;;;22.67;11.80;;;;;;;13.25;79.69;101745.59;5057711;28;20041;-56
2021/09/23 05:59:14;;;;;;;18.20;12.43;;;;;;;13.09;80.91;101752.53;5056633;28;20052;-60
2021/09/23 06:01:42;;;;;;;18.83;12.55;;;;;;;13.33;80.36;101748.47;5030709;28;20061;-57
2021/09/23 06:04:10;;;;;;;26.80;13.45;;;;;;;13.15;80.51;101754.91;5031332;28;20052;-60
2021/09/23 06:06:38;;;;;;;20.10;12.70;;;;;;;13.08;81.02;101759.19;5034630;28;20058;-61
2021/09/23 06:09:05;;;;;;;21.85;12.95;;;;;;;12.75;82.09;101763.06;5033334;28;20424;-59
2021/09/23 06:11:35;;;;;;;21.42;13.25;;;;;;;12.84;83.28;101762.09;5035523;28;20049;-58
2021/09/23 06:14:02;;;;;;;23.23;12.00;;;;;;;13.08;82.23;101762.78;5035112;28;20132;-64
2021/09/23 06:16:30;;;;;;;19.85;12.20;;;;;;;13.11;82.02;101764.13;5022040;28;20050;-66
2021/09/23 06:18:57;;;;;;;19.38;12.10;;;;;;;13.06;81.21;101764.19;5034045;28;20064;-65
2021/09/23 06:21:25;;;;;;;21.25;12.57;;;;;;;13.01;81.53;101761.50;5034186;28;20049;-65
2021/09/23 06:23:53;;;;;;;24.52;13.05;;;;;;;13.35;79.75;101757.25;5035156;28;20792;-66
2021/09/23 06:26:22;;;;;;;24.30;13.18;;;;;;;13.20;79.50;101765.88;5028898;28;20050;-66
2021/09/23 06:28:50;;;;;;;20.25;13.20;;;;;;;12.95;80.58;101765.50;5033602;28;20056;-69
2021/09/23 06:31:17;;;;;;;22.05;13.60;;;;;;;13.35;80.17;101773.88;5033900;28;20045;-66
2021/09/23 06:33:47;;;;;;;19.45;11.75;;;;;;;13.72;79.26;101766.50;5019413;28;20060;-66
2021/09/23 06:36:14;;;;;;;19.10;12.85;;;;;;;13.68;78.49;101762.72;5033704;28;20052;-66
2021/09/23 06:38:41;;;;;;;19.90;12.48;;;;;;;14.19;79.65;101769.59;5035587;28;20520;-66
2021/09/23 06:41:12;;;;;;;19.90;12.35;;;;;;;14.03;76.79;101770.25;5019373;28;20519;-66
2021/09/23 06:43:41;;;;;;;25.10;12.90;;;;;;;14.27;77.16;101774.44;5036068;28;20042;-66
2021/09/23 06:46:13;;;;;;;24.63;13.45;;;;;;;14.03;76.45;101765.53;5035672;28;20377;-65
2021/09/23 06:48:40;;;;;;;23.40;13.07;;;;;;;14.48;78.07;101770.06;5035606;28;20049;-65
2021/09/23 06:51:08;;;;;;;21.15;12.82;;;;;;;14.17;76.73;101782.13;5035021;28;20648;-66
2021/09/23 06:53:35;;;;;;;20.55;13.95;;;;;;;14.10;76.43;101781.72;5035024;28;20052;-67
2021/09/23 06:56:03;;;;;;;22.67;12.75;;;;;;;14.68;78.51;101785.34;5035831;28;20050;-66
2021/09/23 06:58:30;;;;;;;21.60;12.55;;;;;;;14.33;77.34;101777.91;5016776;28;20064;-67
2021/09/23 07:01:16;;;;;;;22.95;13.32;;;;;;;14.78;76.34;101771.25;5035561;28;20053;-66
2021/09/23 07:04:10;;;;;;;24.38;13.07;;;;;;;14.77;74.58;101766.03;5028400;28;20057;-65
2021/09/23 07:07:05;;;;;;;24.50;13.38;;;;;;;14.44;75.86;101759.91;5033548;28;20053;-65
2021/09/23 07:09:36;;;;;;;23.25;13.82;;;;;;;14.56;74.41;101754.59;5032546;28;20052;-65
2021/09/23 07:12:13;;;;;;;26.10;13.55;;;;;;;14.06;75.05;101759.38;5048423;28;20128;-68
2021/09/23 07:14:45;;;;;;;24.45;14.40;;;;;;;13.63;77.01;101769.19;5031854;28;20049;-67
2021/09/23 07:17:13;;;;;;;24.95;14.32;;;;;;;14.16;78.15;101770.22;5032547;28;20049;-66
2021/09/23 07:19:40;;;;;;;25.75;14.00;;;;;;;14.98;77.27;101764.34;5033527;28;20060;-66
2021/09/23 07:22:08;;;;;;;21.73;13.80;;;;;;;15.01;74.24;101760.97;5035920;28;20155;-65
2021/09/23 07:24:37;;;;;;;24.83;13.57;;;;;;;15.04;72.24;101760.31;5035508;28;20064;-65
2021/09/23 07:27:05;;;;;;;25.70;13.23;;;;;;;14.99;72.91;101758.50;5034600;28;20055;-65
2021/09/23 07:29:32;;;;;;;22.55;13.98;;;;;;;15.10;71.33;101761.84;5017440;28;20448;-66
2021/09/23 07:32:00;;;;;;;24.23;15.05;;;;;;;14.68;72.37;101765.16;5035159;28;20062;-65
2021/09/23 07:34:28;;;;;;;23.85;14.65;;;;;;;14.32;73.90;101756.88;5018103;28;20056;-66
2021/09/23 07:36:55;;;;;;;26.85;15.32;;;;;;;14.73;74.17;101753.91;5035350;28;20053;-66
2021/09/23 07:39:23;;;;;;;21.13;16.55;;;;;;;14.81;73.28;101753.16;5043436;28;20045;-65
2021/09/23 07:41:50;;;;;;;24.92;13.75;;;;;;;15.19;73.57;101752.41;5020527;28;20056;-64
2021/09/23 07:44:20;;;;;;;25.50;15.18;;;;;;;15.26;71.14;101755.53;5037539;28;20444;-66
2021/09/23 07:46:48;;;;;;;20.25;13.98;;;;;;;15.12;72.11;101748.44;5036108;28;20069;-66
2021/09/23 07:49:16;;;;;;;21.73;14.07;;;;;;;15.64;73.45;101745.59;5047792;28;20053;-65
2021/09/23 07:51:45;;;;;;;21.55;12.85;;;;;;;15.61;71.08;101740.69;5016253;28;20603;-67
2021/09/23 07:54:12;;;;;;;24.80;14.18;;;;;;;15.42;70.44;101745.69;5034294;28;20052;-65
2021/09/23 07:56:40;;;;;;;23.88;12.95;;;;;;;15.31;71.22;101743.47;5033470;28;20053;-66
2021/09/23 07:59:08;;;;;;;26.55;14.65;;;;;;;15.75;71.18;101738.59;5033745;28;20061;-66
2021/09/23 08:01:35;;;;;;;22.48;13.80;;;;;;;15.79;68.74;101741.53;5032303;28;20049;-66
2021/09/23 08:04:04;;;;;;;27.48;15.13;;;;;;;16.04;68.31;101743.53;5033700;28;20057;-66
2021/09/23 08:06:31;;;;;;;24.08;14.70;;;;;;;15.76;67.88;101743.00;5020781;28;20053;-66
2021/09/23 08:08:59;;;;;;;20.88;13.70;;;;;;;16.12;68.46;101748.31;5030151;28;20060;-65
2021/09/23 08:11:27;;;;;;;26.50;14.55;;;;;;;16.09;69.33;101746.16;5013724;28;20073;-58
2021/09/23 08:14:13;;;;;;;25.00;13.13;;;;;;;16.31;67.98;101746.03;5013478;28;20057;-65
2021/09/23 08:16:43;;;;;;;25.05;13.85;;;;;;;16.04;67.55;101740.75;5030338;28;20049;-65
2021/09/23 08:19:36;;;;;;;27.73;13.93;;;;;;;16.41;66.52;101742.91;5014940;28;20058;-66
2021/09/23 08:22:22;;;;;;;22.02;13.48;;;;;;;16.41;66.32;101745.69;5013922;28;20052;-66
2021/09/23 08:24:50;;;;;;;27.92;14.93;;;;;;;16.37;65.54;101741.13;5014574;28;20543;-65
2021/09/23 08:27:18;;;;;;;27.90;15.20;;;;;;;15.62;67.49;101750.63;5030172;28;20049;-65
2021/09/23 08:29:45;;;;;;;26.92;13.68;;;;;;;15.46;68.81;101751.41;5014388;28;20050;-67
2021/09/23 08:32:19;;;;;;;26.45;14.93;;;;;;;15.49;70.91;101736.88;5013682;28;20069;-64
2021/09/23 08:34:50;;;;;;;20.85;13.60;;;;;;;16.15;67.87;101732.91;5013268;28;20052;-66
2021/09/23 08:37:18;;;;;;;30.70;14.70;;;;;;;15.89;67.19;101737.63;5030176;28;20049;-66
2021/09/23 08:39:47;;;;;;;23.17;12.63;;;;;;;15.60;65.63;101736.25;5035756;28;20048;-65
2021/09/23 08:42:15;;;;;;;26.92;12.43;;;;;;;15.39;67.29;101746.31;5052559;28;20378;-66
2021/09/23 08:44:43;;;;;;;23.92;13.10;;;;;;;15.79;66.59;101738.78;5052908;28;20060;-66
2021/09/23 08:47:12;;;;;;;20.67;12.93;;;;;;;15.95;66.07;101737.16;5053146;28;20052;-57
2021/09/23 08:49:40;;;;;;;19.95;13.32;;;;;;;15.83;66.93;101738.94;5036702;28;20053;-66
2021/09/23 08:52:09;;;;;;;21.95;12.13;;;;;;;15.92;65.63;101748.13;5036083;28;20076;-65
2021/09/23 08:54:36;;;;;;;18.13;12.18;;;;;;;16.06;66.03;101752.38;5053125;28;20113;-58
2021/09/23 08:57:04;;;;;;;23.27;13.18;;;;;;;16.34;65.75;101742.59;5052994;28;20057;-61
2021/09/23 08:59:33;;;;;;;37.92;13.10;;;;;;;16.46;64.79;101753.03;5020469;28;20053;-58
2021/09/23 09:02:23;;;;;;;24.08;11.63;;;;;;;16.45;64.19;101745.84;5037003;28;20097;-57
2021/09/23 09:05:18;;;;;;;19.42;11.57;;;;;;;16.49;63.56;101747.66;5039822;28;20060;-57
2021/09/23 09:08:16;;;;;;;21.45;11.80;;;;;;;16.58;63.28;101754.06;5031251;28;20049;-58
2021/09/23 09:11:06;;;;;;;18.27;11.20;;;;;;;16.34;64.64;101759.25;5033918;28;20072;-59
2021/09/23 09:13:40;;;;;;;19.60;11.05;;;;;;;16.26;64.36;101757.31;5036278;28;20053;-57
2021/09/23 09:16:09;;;;;;;23.83;11.60;;;;;;;16.20;64.68;101752.22;5048331;28;20422;-57
2021/09/23 09:18:38;;;;;;;18.23;10.82;;;;;;;16.35;63.91;101749.75;5019445;28;20064;-58
2021/09/23 09:21:16;;;;;;;17.92;10.70;;;;;;;16.49;62.99;101758.00;5053520;28;20052;-59
2021/09/23 09:24:00;;;;;;;17.88;9.68;;;;;;;16.49;62.71;101753.22;5036534;28;20068;-59
2021/09/23 09:26:40;;;;;;;17.77;9.38;;;;;;;16.58;62.31;101747.69;5036776;28;20049;-57
2021/09/23 09:29:15;;;;;;;14.07;9.40;;;;;;;16.78;61.62;101750.59;5035943;28;20054;-58
2021/09/23 09:31:46;;;;;;;18.50;9.38;;;;;;;16.61;62.53;101744.25;5036404;28;20065;-54
2021/09/23 09:34:15;;;;;;;15.18;8.98;;;;;;;16.71;61.99;101752.25;5036078;28;20086;-58
2021/09/23 09:36:51;;;;;;;21.08;9.32;;;;;;;16.60;61.96;101750.94;5036337;28;20053;-57
2021/09/23 09:39:20;;;;;;;20.05;8.32;;;;;;;16.63;62.21;101744.75;5043464;28;20545;-58
2021/09/23 09:41:52;;;;;;;12.25;7.85;;;;;;;16.99;61.66;101749.91;5056514;28;20501;-58
2021/09/23 09:44:20;;;;;;;16.27;8.75;;;;;;;17.12;61.31;101741.34;5055354;28;20045;-59
2021/09/23 09:46:53;;;;;;;15.20;8.02;;;;;;;17.08;60.79;101743.16;5039934;28;20060;-58
2021/09/23 09:49:24;;;;;;;13.27;8.20;;;;;;;16.88;62.54;101732.72;5055609;28;20060;-56
2021/09/23 09:51:58;;;;;;;17.55;8.45;;;;;;;17.14;60.12;101733.47;5057580;28;20404;-57
2021/09/23 09:54:27;;;;;;;13.68;8.02;;;;;;;17.07;59.93;101735.16;5040076;28;20053;-57
2021/09/23 09:57:00;;;;;;;16.08;8.25;;;;;;;16.92;60.11;101739.28;5056322;28;20049;-52
2021/09/23 09:59:30;;;;;;;12.77;8.07;;;;;;;16.80;61.02;101725.22;5055860;28;20060;-57
2021/09/23 10:01:59;;;;;;;14.95;8.27;;;;;;;16.92;61.12;101727.31;5056799;28;20079;-59
2021/09/23 10:04:29;;;;;;;12.93;8.53;;;;;;;17.46;61.54;101727.31;5055858;28;20057;-58
2021/09/23 10:07:02;;;;;;;36.47;27.52;;;;;;;17.44;59.35;101717.63;5055320;28;20475;-57
2021/09/23 10:09:35;;;;;;;14.38;10.75;;;;;;;17.11;60.41;101720.22;5039486;28;20492;-58
2021/09/23 10:12:05;;;;;;;15.82;9.77;;;;;;;17.53;59.05;101719.25;5022421;28;20060;-58
2021/09/23 10:14:35;;;;;;;;;;;;;;;17.20;59.72;101717.41;5057014;28;20053;-59
2021/09/23 10:17:04;;;;;;;11.48;7.65;;;;;;;17.28;59.39;101714.56;5029381;28;19921;-58
2021/09/23 10:19:34;;;;;;;15.82;8.93;;;;;;;17.27;58.94;101721.31;5035796;28;20057;-59
2021/09/23 10:22:02;;;;;;;14.48;7.32;;;;;;;17.28;58.96;101706.22;5034996;28;20053;-58
2021/09/23 10:24:29;;;;;;;16.35;7.80;;;;;;;17.49;58.33;101709.09;5035354;28;20056;-58
2021/09/23 10:26:57;;;;;;;12.23;7.55;;;;;;;17.74;59.26;101702.56;5018644;28;20048;-58
2021/09/23 10:29:25;;;;;;;17.58;10.40;;;;;;;18.15;57.41;101697.00;5035445;28;20326;-57
2021/09/23 10:31:57;;;;;;;20.58;10.77;;;;;;;18.53;55.68;101694.88;5051302;28;20057;-59
2021/09/23 10:34:25;;;;;;;17.60;9.27;;;;;;;18.45;56.21;101703.34;5036950;28;20420;-56
2021/09/23 10:36:53;;;;;;;16.65;8.48;;;;;;;18.06;55.69;101701.88;5035491;28;20049;-58
2021/09/23 10:39:23;;;;;;;11.00;7.60;;;;;;;17.82;56.06;101694.16;5042691;28;20049;-55
2021/09/23 10:41:50;;;;;;;15.45;7.40;;;;;;;18.12;55.23;101696.88;5055131;28;20060;-56
2021/09/23 10:44:19;;;;;;;13.55;7.80;;;;;;;17.87;55.68;101691.16;5037286;28;20064;-58
2021/09/23 10:46:46;;;;;;;13.27;7.75;;;;;;;17.86;56.28;101678.41;5054613;28;20045;-57
2021/09/23 10:49:14;;;;;;;13.13;8.07;;;;;;;18.14;55.33;101678.66;5038095;28;20053;-57
2021/09/23 10:51:43;;;;;;;15.13;8.23;;;;;;;18.10;55.22;101674.13;5055030;28;20408;-59
2021/09/23 10:54:17;;;;;;;13.98;8.23;;;;;;;18.37;54.93;101667.97;5054652;28;20407;-58
2021/09/23 10:56:47;;;;;;;13.60;7.55;;;;;;;18.32;54.62;101670.97;5056223;28;20060;-60
2021/09/23 10:59:15;;;;;;;14.63;8.95;;;;;;;18.20;54.63;101666.13;5037883;28;20064;-58
2021/09/23 11:01:44;;;;;;;16.67;10.02;;;;;;;18.18;54.53;101659.28;5021510;28;20052;-59
2021/09/23 11:04:31;;;;;;;16.58;8.85;;;;;;;18.18;54.18;101664.84;5054012;28;20052;-59
2021/09/23 11:07:01;;;;;;;11.50;8.10;;;;;;;18.24;53.68;101646.75;5054925;28;20499;-59
2021/09/23 11:09:31;;;;;;;11.77;8.48;;;;;;;18.43;53.83;101642.31;5054277;28;20049;-66
2021/09/23 11:12:06;;;;;;;17.67;8.82;;;;;;;18.54;54.05;101637.94;5054837;28;20049;-65
2021/09/23 11:14:47;;;;;;;14.03;7.73;;;;;;;19.00;53.89;101631.97;5037082;28;20056;-66
2021/09/23 11:17:17;;;;;;;17.33;8.10;;;;;;;19.20;52.36;101635.00;5039666;28;20041;-66
2021/09/23 11:19:54;;;;;;;14.13;9.02;;;;;;;19.09;51.42;101638.25;5034372;28;20064;-66
2021/09/23 11:22:36;;;;;;;13.95;8.20;;;;;;;19.38;50.74;101631.66;5035375;28;20053;-66
2021/09/23 11:25:09;;;;;;;12.50;8.00;;;;;;;18.95;51.95;101629.41;5033372;28;20049;-65